sensor_id;sensor_type;location;lat;lon;timestamp;temperature;humidity
27413;DHT22;14871;52.702;5.230;2024-02-23T00:01:21;8.00;99.90
27413;DHT22;14871;52.702;5.230;2024-02-23T00:03:46;8.20;99.90
27413;DHT22;14871;52.702;5.230;2024-02-23T00:06:12;8.20;99.90
27413;DHT22;14871;52.702;5.230;2024-02-23T00:08:37;7.80;99.90
27413;DHT22;14871;52.702;5.230;2024-02-23T00:11:03;7.80;99.90
27413;DHT22;14871;52.702;5.230;2024-02-23T00:13:29;7.70;99.90
27413;DHT22;14871;52.702;5.230;2024-02-23T00:15:54;7.80;99.90
27413;DHT22;14871;52.702;5.230;2024-02-23T00:18:20;8.00;99.90
27413;DHT22;14871;52.702;5.230;2024-02-23T00:20:46;8.10;99.90
27413;DHT22;14871;52.702;5.230;2024-02-23T00:23:14;8.00;99.90
27413;DHT22;14871;52.702;5.230;2024-02-23T00:25:39;8.10;99.90
27413;DHT22;14871;52.702;5.230;2024-02-23T00:28:05;8.10;99.90
27413;DHT22;14871;52.702;5.230;2024-02-23T00:30:31;8.20;99.90
27413;DHT22;14871;52.702;5.230;2024-02-23T00:32:58;8.40;99.90
27413;DHT22;14871;52.702;5.230;2024-02-23T00:35:23;8.40;99.90
27413;DHT22;14871;52.702;5.230;2024-02-23T00:37:49;8.60;99.90
27413;DHT22;14871;52.702;5.230;2024-02-23T00:40:16;8.50;99.90
27413;DHT22;14871;52.702;5.230;2024-02-23T00:42:42;8.50;99.90
27413;DHT22;14871;52.702;5.230;2024-02-23T00:45:08;8.50;99.90
27413;DHT22;14871;52.702;5.230;2024-02-23T00:47:33;8.70;99.90
27413;DHT22;14871;52.702;5.230;2024-02-23T00:50:01;8.80;99.90
27413;DHT22;14871;52.702;5.230;2024-02-23T00:52:27;8.70;99.90
27413;DHT22;14871;52.702;5.230;2024-02-23T00:54:53;8.80;99.90
27413;DHT22;14871;52.702;5.230;2024-02-23T00:57:18;8.80;99.90
27413;DHT22;14871;52.702;5.230;2024-02-23T00:59:51;8.70;99.90
27413;DHT22;14871;52.702;5.230;2024-02-23T01:02:17;8.60;99.90
27413;DHT22;14871;52.702;5.230;2024-02-23T01:04:42;8.70;99.90
27413;DHT22;14871;52.702;5.230;2024-02-23T01:07:08;8.80;99.90
27413;DHT22;14871;52.702;5.230;2024-02-23T01:09:33;8.70;99.90
27413;DHT22;14871;52.702;5.230;2024-02-23T01:12:01;8.70;99.90
27413;DHT22;14871;52.702;5.230;2024-02-23T01:14:26;8.60;99.90
27413;DHT22;14871;52.702;5.230;2024-02-23T01:16:53;8.80;99.90
27413;DHT22;14871;52.702;5.230;2024-02-23T01:19:19;8.70;99.90
27413;DHT22;14871;52.702;5.230;2024-02-23T01:21:44;8.60;99.90
27413;DHT22;14871;52.702;5.230;2024-02-23T01:24:10;8.50;99.90
27413;DHT22;14871;52.702;5.230;2024-02-23T01:26:35;8.50;99.90
27413;DHT22;14871;52.702;5.230;2024-02-23T01:29:01;8.70;99.90
27413;DHT22;14871;52.702;5.230;2024-02-23T01:31:28;8.90;99.90
27413;DHT22;14871;52.702;5.230;2024-02-23T01:33:55;8.70;99.90
27413;DHT22;14871;52.702;5.230;2024-02-23T01:36:21;8.70;99.90
27413;DHT22;14871;52.702;5.230;2024-02-23T01:38:47;8.70;99.90
27413;DHT22;14871;52.702;5.230;2024-02-23T01:41:13;8.60;99.90
27413;DHT22;14871;52.702;5.230;2024-02-23T01:43:39;8.70;99.90
27413;DHT22;14871;52.702;5.230;2024-02-23T01:46:05;8.50;99.90
27413;DHT22;14871;52.702;5.230;2024-02-23T01:48:32;8.60;99.90
27413;DHT22;14871;52.702;5.230;2024-02-23T01:51:00;8.70;99.90
27413;DHT22;14871;52.702;5.230;2024-02-23T01:53:25;8.40;99.90
27413;DHT22;14871;52.702;5.230;2024-02-23T01:55:53;8.30;99.90
27413;DHT22;14871;52.702;5.230;2024-02-23T01:58:20;8.50;99.90
27413;DHT22;14871;52.702;5.230;2024-02-23T02:00:46;8.70;99.90
27413;DHT22;14871;52.702;5.230;2024-02-23T02:03:13;8.50;99.90
27413;DHT22;14871;52.702;5.230;2024-02-23T02:05:40;8.30;99.90
27413;DHT22;14871;52.702;5.230;2024-02-23T02:08:06;8.40;99.90
27413;DHT22;14871;52.702;5.230;2024-02-23T02:10:32;8.40;99.90
27413;DHT22;14871;52.702;5.230;2024-02-23T02:13:05;8.40;99.90
27413;DHT22;14871;52.702;5.230;2024-02-23T02:15:31;8.30;99.90
27413;DHT22;14871;52.702;5.230;2024-02-23T02:17:58;8.40;99.90
27413;DHT22;14871;52.702;5.230;2024-02-23T02:20:24;8.30;99.90
27413;DHT22;14871;52.702;5.230;2024-02-23T02:22:51;8.20;99.90
27413;DHT22;14871;52.702;5.230;2024-02-23T02:25:18;8.30;99.90
27413;DHT22;14871;52.702;5.230;2024-02-23T02:27:45;8.30;99.90
27413;DHT22;14871;52.702;5.230;2024-02-23T02:30:14;8.50;99.90
27413;DHT22;14871;52.702;5.230;2024-02-23T02:32:40;8.30;99.90
27413;DHT22;14871;52.702;5.230;2024-02-23T02:35:10;8.20;99.90
27413;DHT22;14871;52.702;5.230;2024-02-23T02:37:37;8.30;99.90
27413;DHT22;14871;52.702;5.230;2024-02-23T02:40:03;8.30;99.90
27413;DHT22;14871;52.702;5.230;2024-02-23T02:42:30;8.40;99.90
27413;DHT22;14871;52.702;5.230;2024-02-23T02:44:57;8.30;99.90
27413;DHT22;14871;52.702;5.230;2024-02-23T02:47:23;8.30;99.90
27413;DHT22;14871;52.702;5.230;2024-02-23T02:49:49;8.30;99.90
27413;DHT22;14871;52.702;5.230;2024-02-23T02:52:15;8.20;99.90
27413;DHT22;14871;52.702;5.230;2024-02-23T02:54:42;8.20;99.90
27413;DHT22;14871;52.702;5.230;2024-02-23T02:57:08;8.40;99.90
27413;DHT22;14871;52.702;5.230;2024-02-23T02:59:35;8.30;99.90
27413;DHT22;14871;52.702;5.230;2024-02-23T03:02:01;8.20;99.90
27413;DHT22;14871;52.702;5.230;2024-02-23T03:04:28;8.20;99.90
27413;DHT22;14871;52.702;5.230;2024-02-23T03:06:54;8.30;99.90
27413;DHT22;14871;52.702;5.230;2024-02-23T03:09:19;8.30;99.90
27413;DHT22;14871;52.702;5.230;2024-02-23T03:11:45;8.30;99.90
27413;DHT22;14871;52.702;5.230;2024-02-23T03:14:11;8.20;99.90
27413;DHT22;14871;52.702;5.230;2024-02-23T03:16:37;8.10;99.90
27413;DHT22;14871;52.702;5.230;2024-02-23T03:19:04;8.20;99.90
27413;DHT22;14871;52.702;5.230;2024-02-23T03:21:30;8.10;99.90
27413;DHT22;14871;52.702;5.230;2024-02-23T03:23:56;8.10;99.90
27413;DHT22;14871;52.702;5.230;2024-02-23T03:26:21;8.10;99.90
27413;DHT22;14871;52.702;5.230;2024-02-23T03:28:47;8.20;99.90
27413;DHT22;14871;52.702;5.230;2024-02-23T03:31:14;8.20;99.90
27413;DHT22;14871;52.702;5.230;2024-02-23T03:33:39;8.20;99.90
27413;DHT22;14871;52.702;5.230;2024-02-23T03:36:06;8.10;99.90
27413;DHT22;14871;52.702;5.230;2024-02-23T03:38:31;8.20;99.90
27413;DHT22;14871;52.702;5.230;2024-02-23T03:40:59;8.20;99.90
27413;DHT22;14871;52.702;5.230;2024-02-23T03:43:25;8.20;99.90
27413;DHT22;14871;52.702;5.230;2024-02-23T03:45:51;8.30;99.90
27413;DHT22;14871;52.702;5.230;2024-02-23T03:48:19;8.10;99.90
27413;DHT22;14871;52.702;5.230;2024-02-23T03:50:45;8.20;99.90
27413;DHT22;14871;52.702;5.230;2024-02-23T03:53:11;8.30;99.90
27413;DHT22;14871;52.702;5.230;2024-02-23T03:55:37;8.10;99.90
27413;DHT22;14871;52.702;5.230;2024-02-23T03:58:03;8.30;99.90
27413;DHT22;14871;52.702;5.230;2024-02-23T04:00:32;8.10;99.90
27413;DHT22;14871;52.702;5.230;2024-02-23T04:02:58;8.30;99.90
27413;DHT22;14871;52.702;5.230;2024-02-23T04:05:23;8.20;99.90
27413;DHT22;14871;52.702;5.230;2024-02-23T04:07:49;8.10;99.90
27413;DHT22;14871;52.702;5.230;2024-02-23T04:10:15;8.10;99.90
27413;DHT22;14871;52.702;5.230;2024-02-23T04:12:42;8.10;99.90
27413;DHT22;14871;52.702;5.230;2024-02-23T04:15:09;8.10;99.90
27413;DHT22;14871;52.702;5.230;2024-02-23T04:17:35;8.30;99.90
27413;DHT22;14871;52.702;5.230;2024-02-23T04:20:06;8.20;99.90
27413;DHT22;14871;52.702;5.230;2024-02-23T04:22:34;8.30;99.90
27413;DHT22;14871;52.702;5.230;2024-02-23T04:24:59;8.20;99.90
27413;DHT22;14871;52.702;5.230;2024-02-23T04:27:25;8.20;99.90
27413;DHT22;14871;52.702;5.230;2024-02-23T04:29:50;8.30;99.90
27413;DHT22;14871;52.702;5.230;2024-02-23T04:32:16;8.30;99.90
27413;DHT22;14871;52.702;5.230;2024-02-23T04:34:42;8.30;99.90
27413;DHT22;14871;52.702;5.230;2024-02-23T04:37:12;8.30;99.90
27413;DHT22;14871;52.702;5.230;2024-02-23T04:39:38;8.50;99.90
27413;DHT22;14871;52.702;5.230;2024-02-23T04:42:08;8.50;99.90
27413;DHT22;14871;52.702;5.230;2024-02-23T04:44:34;8.40;99.90
27413;DHT22;14871;52.702;5.230;2024-02-23T04:47:00;8.30;99.90
27413;DHT22;14871;52.702;5.230;2024-02-23T04:49:28;8.30;99.90
27413;DHT22;14871;52.702;5.230;2024-02-23T04:51:54;8.60;99.90
27413;DHT22;14871;52.702;5.230;2024-02-23T04:54:20;8.50;99.90
27413;DHT22;14871;52.702;5.230;2024-02-23T04:56:47;8.60;99.90
27413;DHT22;14871;52.702;5.230;2024-02-23T04:59:13;8.50;99.90
27413;DHT22;14871;52.702;5.230;2024-02-23T05:01:38;8.60;99.90
27413;DHT22;14871;52.702;5.230;2024-02-23T05:04:06;8.70;99.90
27413;DHT22;14871;52.702;5.230;2024-02-23T05:06:31;8.60;99.90
27413;DHT22;14871;52.702;5.230;2024-02-23T05:08:57;8.40;99.90
27413;DHT22;14871;52.702;5.230;2024-02-23T05:11:23;8.40;99.90
27413;DHT22;14871;52.702;5.230;2024-02-23T05:13:49;8.50;99.90
27413;DHT22;14871;52.702;5.230;2024-02-23T05:16:19;8.50;99.90
27413;DHT22;14871;52.702;5.230;2024-02-23T05:18:44;8.30;99.90
27413;DHT22;14871;52.702;5.230;2024-02-23T05:21:12;7.90;99.90
27413;DHT22;14871;52.702;5.230;2024-02-23T05:23:37;8.30;99.90
27413;DHT22;14871;52.702;5.230;2024-02-23T05:26:03;8.20;99.90
27413;DHT22;14871;52.702;5.230;2024-02-23T05:28:29;7.90;99.90
27413;DHT22;14871;52.702;5.230;2024-02-23T05:30:55;8.20;99.90
27413;DHT22;14871;52.702;5.230;2024-02-23T05:33:21;8.10;99.90
27413;DHT22;14871;52.702;5.230;2024-02-23T05:35:48;8.20;99.90
27413;DHT22;14871;52.702;5.230;2024-02-23T05:38:17;8.10;99.90
27413;DHT22;14871;52.702;5.230;2024-02-23T05:40:43;8.00;99.90
27413;DHT22;14871;52.702;5.230;2024-02-23T05:43:08;7.90;99.90
27413;DHT22;14871;52.702;5.230;2024-02-23T05:45:34;8.10;99.90
27413;DHT22;14871;52.702;5.230;2024-02-23T05:48:02;8.00;99.90
27413;DHT22;14871;52.702;5.230;2024-02-23T05:50:28;7.90;99.90
27413;DHT22;14871;52.702;5.230;2024-02-23T05:52:57;7.80;99.90
27413;DHT22;14871;52.702;5.230;2024-02-23T05:55:24;7.80;99.90
27413;DHT22;14871;52.702;5.230;2024-02-23T05:57:50;7.80;99.90
27413;DHT22;14871;52.702;5.230;2024-02-23T06:00:18;8.00;99.90
27413;DHT22;14871;52.702;5.230;2024-02-23T06:02:45;7.80;99.90
27413;DHT22;14871;52.702;5.230;2024-02-23T06:05:12;7.90;99.90
27413;DHT22;14871;52.702;5.230;2024-02-23T06:07:38;7.90;99.90
27413;DHT22;14871;52.702;5.230;2024-02-23T06:10:04;7.90;99.90
27413;DHT22;14871;52.702;5.230;2024-02-23T06:12:30;7.70;99.90
27413;DHT22;14871;52.702;5.230;2024-02-23T06:14:56;7.70;99.90
27413;DHT22;14871;52.702;5.230;2024-02-23T06:17:22;7.60;99.90
27413;DHT22;14871;52.702;5.230;2024-02-23T06:19:48;7.70;99.90
27413;DHT22;14871;52.702;5.230;2024-02-23T06:22:14;7.80;99.90
27413;DHT22;14871;52.702;5.230;2024-02-23T06:24:42;7.60;99.90
27413;DHT22;14871;52.702;5.230;2024-02-23T06:27:08;7.60;99.90
27413;DHT22;14871;52.702;5.230;2024-02-23T06:29:35;7.90;99.90
27413;DHT22;14871;52.702;5.230;2024-02-23T06:32:00;7.60;99.90
27413;DHT22;14871;52.702;5.230;2024-02-23T06:34:28;7.60;99.90
27413;DHT22;14871;52.702;5.230;2024-02-23T06:36:53;7.90;99.90
27413;DHT22;14871;52.702;5.230;2024-02-23T06:39:19;7.80;99.90
27413;DHT22;14871;52.702;5.230;2024-02-23T06:41:45;7.70;99.90
27413;DHT22;14871;52.702;5.230;2024-02-23T06:44:11;7.80;99.90
27413;DHT22;14871;52.702;5.230;2024-02-23T06:46:36;7.90;99.90
27413;DHT22;14871;52.702;5.230;2024-02-23T06:49:02;7.90;99.90
27413;DHT22;14871;52.702;5.230;2024-02-23T06:51:28;7.80;99.90
27413;DHT22;14871;52.702;5.230;2024-02-23T06:53:53;8.20;99.90
27413;DHT22;14871;52.702;5.230;2024-02-23T06:56:20;7.90;99.90
27413;DHT22;14871;52.702;5.230;2024-02-23T06:58:45;7.80;99.90
27413;DHT22;14871;52.702;5.230;2024-02-23T07:01:11;7.90;99.90
27413;DHT22;14871;52.702;5.230;2024-02-23T07:03:38;8.10;99.90
27413;DHT22;14871;52.702;5.230;2024-02-23T07:06:05;8.00;99.90
27413;DHT22;14871;52.702;5.230;2024-02-23T07:08:31;8.00;99.90
27413;DHT22;14871;52.702;5.230;2024-02-23T07:10:59;8.20;99.90
27413;DHT22;14871;52.702;5.230;2024-02-23T07:13:24;8.10;99.90
27413;DHT22;14871;52.702;5.230;2024-02-23T07:15:50;8.10;99.90
27413;DHT22;14871;52.702;5.230;2024-02-23T07:18:16;8.20;99.90
27413;DHT22;14871;52.702;5.230;2024-02-23T07:20:41;8.10;99.90
27413;DHT22;14871;52.702;5.230;2024-02-23T07:23:07;8.10;99.90
27413;DHT22;14871;52.702;5.230;2024-02-23T07:25:33;8.00;99.90
27413;DHT22;14871;52.702;5.230;2024-02-23T07:27:58;8.20;99.90
27413;DHT22;14871;52.702;5.230;2024-02-23T07:30:24;8.00;99.90
27413;DHT22;14871;52.702;5.230;2024-02-23T07:32:49;8.00;99.90
27413;DHT22;14871;52.702;5.230;2024-02-23T07:35:15;8.40;99.90
27413;DHT22;14871;52.702;5.230;2024-02-23T07:37:41;8.10;99.90
27413;DHT22;14871;52.702;5.230;2024-02-23T07:40:07;8.00;99.90
27413;DHT22;14871;52.702;5.230;2024-02-23T07:42:33;7.90;99.90
27413;DHT22;14871;52.702;5.230;2024-02-23T07:45:02;8.20;99.90
27413;DHT22;14871;52.702;5.230;2024-02-23T07:47:30;8.10;99.90
27413;DHT22;14871;52.702;5.230;2024-02-23T07:49:55;8.00;99.90
27413;DHT22;14871;52.702;5.230;2024-02-23T07:52:21;8.10;99.90
27413;DHT22;14871;52.702;5.230;2024-02-23T07:54:49;8.20;99.90
27413;DHT22;14871;52.702;5.230;2024-02-23T07:57:17;8.20;99.90
27413;DHT22;14871;52.702;5.230;2024-02-23T07:59:43;8.20;99.90
27413;DHT22;14871;52.702;5.230;2024-02-23T08:02:08;7.90;99.90
27413;DHT22;14871;52.702;5.230;2024-02-23T08:04:34;8.10;99.90
27413;DHT22;14871;52.702;5.230;2024-02-23T08:06:59;8.10;99.90
27413;DHT22;14871;52.702;5.230;2024-02-23T08:09:25;8.20;99.90
27413;DHT22;14871;52.702;5.230;2024-02-23T08:11:51;8.10;99.90
27413;DHT22;14871;52.702;5.230;2024-02-23T08:14:16;8.30;99.90
27413;DHT22;14871;52.702;5.230;2024-02-23T08:16:42;8.30;99.90
27413;DHT22;14871;52.702;5.230;2024-02-23T08:19:08;8.30;99.90
27413;DHT22;14871;52.702;5.230;2024-02-23T08:21:33;8.10;99.90
27413;DHT22;14871;52.702;5.230;2024-02-23T08:23:59;8.20;99.90
27413;DHT22;14871;52.702;5.230;2024-02-23T08:26:24;8.30;99.90
27413;DHT22;14871;52.702;5.230;2024-02-23T08:28:50;8.40;99.90
27413;DHT22;14871;52.702;5.230;2024-02-23T08:31:16;8.20;99.90
27413;DHT22;14871;52.702;5.230;2024-02-23T08:33:42;8.20;99.90
27413;DHT22;14871;52.702;5.230;2024-02-23T08:36:07;8.60;99.90
27413;DHT22;14871;52.702;5.230;2024-02-23T08:38:33;8.50;99.90
27413;DHT22;14871;52.702;5.230;2024-02-23T08:40:59;8.40;99.90
27413;DHT22;14871;52.702;5.230;2024-02-23T08:43:25;8.40;99.90
27413;DHT22;14871;52.702;5.230;2024-02-23T08:45:50;8.50;99.90
27413;DHT22;14871;52.702;5.230;2024-02-23T08:48:16;8.40;99.90
27413;DHT22;14871;52.702;5.230;2024-02-23T08:50:43;8.40;99.90
27413;DHT22;14871;52.702;5.230;2024-02-23T08:53:10;8.50;99.90
27413;DHT22;14871;52.702;5.230;2024-02-23T08:55:35;8.20;99.90
27413;DHT22;14871;52.702;5.230;2024-02-23T08:58:01;8.10;99.90
27413;DHT22;14871;52.702;5.230;2024-02-23T09:00:27;8.10;99.90
27413;DHT22;14871;52.702;5.230;2024-02-23T09:02:52;8.00;99.90
27413;DHT22;14871;52.702;5.230;2024-02-23T09:05:18;7.80;99.90
27413;DHT22;14871;52.702;5.230;2024-02-23T09:07:44;7.60;99.90
27413;DHT22;14871;52.702;5.230;2024-02-23T09:10:10;7.50;99.90
27413;DHT22;14871;52.702;5.230;2024-02-23T09:12:37;7.50;99.90
27413;DHT22;14871;52.702;5.230;2024-02-23T09:15:03;7.60;99.90
27413;DHT22;14871;52.702;5.230;2024-02-23T09:17:29;7.70;99.90
27413;DHT22;14871;52.702;5.230;2024-02-23T09:19:54;7.60;99.90
27413;DHT22;14871;52.702;5.230;2024-02-23T09:22:20;7.70;99.90
27413;DHT22;14871;52.702;5.230;2024-02-23T09:24:45;7.70;99.90
27413;DHT22;14871;52.702;5.230;2024-02-23T09:27:11;7.80;99.90
27413;DHT22;14871;52.702;5.230;2024-02-23T09:29:37;7.80;99.90
27413;DHT22;14871;52.702;5.230;2024-02-23T09:32:03;8.10;99.90
27413;DHT22;14871;52.702;5.230;2024-02-23T09:34:30;7.80;99.90
27413;DHT22;14871;52.702;5.230;2024-02-23T09:36:56;8.10;99.90
27413;DHT22;14871;52.702;5.230;2024-02-23T09:39:21;8.30;99.90
27413;DHT22;14871;52.702;5.230;2024-02-23T09:41:50;8.20;99.90
27413;DHT22;14871;52.702;5.230;2024-02-23T09:44:18;8.30;99.90
27413;DHT22;14871;52.702;5.230;2024-02-23T09:46:46;8.00;99.90
27413;DHT22;14871;52.702;5.230;2024-02-23T09:49:12;8.20;99.90
27413;DHT22;14871;52.702;5.230;2024-02-23T09:51:39;8.00;99.90
27413;DHT22;14871;52.702;5.230;2024-02-23T09:54:05;8.20;99.90
27413;DHT22;14871;52.702;5.230;2024-02-23T09:56:31;8.00;99.90
27413;DHT22;14871;52.702;5.230;2024-02-23T09:59:01;8.20;99.90
27413;DHT22;14871;52.702;5.230;2024-02-23T10:01:29;8.10;99.90
27413;DHT22;14871;52.702;5.230;2024-02-23T10:03:59;8.20;99.90
27413;DHT22;14871;52.702;5.230;2024-02-23T10:06:26;8.30;99.90
27413;DHT22;14871;52.702;5.230;2024-02-23T10:08:52;8.00;99.90
27413;DHT22;14871;52.702;5.230;2024-02-23T10:11:20;8.10;99.90
27413;DHT22;14871;52.702;5.230;2024-02-23T10:13:48;8.40;99.90
27413;DHT22;14871;52.702;5.230;2024-02-23T10:16:19;8.30;99.90
27413;DHT22;14871;52.702;5.230;2024-02-23T10:18:46;8.20;99.90
27413;DHT22;14871;52.702;5.230;2024-02-23T10:21:14;8.40;99.90
27413;DHT22;14871;52.702;5.230;2024-02-23T10:23:40;8.40;99.90
27413;DHT22;14871;52.702;5.230;2024-02-23T10:26:07;8.60;99.90
27413;DHT22;14871;52.702;5.230;2024-02-23T10:28:34;8.60;99.90
27413;DHT22;14871;52.702;5.230;2024-02-23T10:31:00;8.80;99.90
27413;DHT22;14871;52.702;5.230;2024-02-23T10:33:27;8.70;99.90
27413;DHT22;14871;52.702;5.230;2024-02-23T10:35:57;8.90;99.90
27413;DHT22;14871;52.702;5.230;2024-02-23T10:38:26;8.90;99.90
27413;DHT22;14871;52.702;5.230;2024-02-23T10:40:55;8.70;99.90
27413;DHT22;14871;52.702;5.230;2024-02-23T10:43:30;8.90;99.90
27413;DHT22;14871;52.702;5.230;2024-02-23T10:45:58;9.00;99.90
27413;DHT22;14871;52.702;5.230;2024-02-23T10:48:28;8.90;99.90
27413;DHT22;14871;52.702;5.230;2024-02-23T10:50:55;8.90;99.90
27413;DHT22;14871;52.702;5.230;2024-02-23T10:53:24;9.10;99.90
27413;DHT22;14871;52.702;5.230;2024-02-23T10:55:56;8.80;99.90
27413;DHT22;14871;52.702;5.230;2024-02-23T10:58:23;9.10;99.90
27413;DHT22;14871;52.702;5.230;2024-02-23T11:00:49;9.10;99.90
27413;DHT22;14871;52.702;5.230;2024-02-23T11:03:16;9.10;99.90
27413;DHT22;14871;52.702;5.230;2024-02-23T11:05:42;9.20;99.90
27413;DHT22;14871;52.702;5.230;2024-02-23T11:08:08;9.30;99.90
27413;DHT22;14871;52.702;5.230;2024-02-23T11:10:49;9.30;99.90
27413;DHT22;14871;52.702;5.230;2024-02-23T11:13:16;9.40;99.90
27413;DHT22;14871;52.702;5.230;2024-02-23T11:15:42;9.50;99.90
27413;DHT22;14871;52.702;5.230;2024-02-23T11:18:27;9.40;99.90
27413;DHT22;14871;52.702;5.230;2024-02-23T11:20:54;9.60;99.90
27413;DHT22;14871;52.702;5.230;2024-02-23T11:23:20;9.60;99.90
27413;DHT22;14871;52.702;5.230;2024-02-23T11:26:04;9.70;99.90
27413;DHT22;14871;52.702;5.230;2024-02-23T11:28:30;9.70;99.90
27413;DHT22;14871;52.702;5.230;2024-02-23T11:30:57;9.80;99.90
27413;DHT22;14871;52.702;5.230;2024-02-23T11:33:28;9.90;99.90
27413;DHT22;14871;52.702;5.230;2024-02-23T11:36:05;10.10;99.90
27413;DHT22;14871;52.702;5.230;2024-02-23T11:38:32;9.80;99.90
27413;DHT22;14871;52.702;5.230;2024-02-23T11:40:59;10.00;99.90
27413;DHT22;14871;52.702;5.230;2024-02-23T11:43:25;10.10;99.90
27413;DHT22;14871;52.702;5.230;2024-02-23T11:45:51;10.10;99.90
27413;DHT22;14871;52.702;5.230;2024-02-23T11:48:17;9.80;99.90
27413;DHT22;14871;52.702;5.230;2024-02-23T11:50:43;9.90;99.90
27413;DHT22;14871;52.702;5.230;2024-02-23T11:53:09;9.90;99.90
27413;DHT22;14871;52.702;5.230;2024-02-23T11:55:35;10.10;99.90
27413;DHT22;14871;52.702;5.230;2024-02-23T11:58:01;9.90;99.90
27413;DHT22;14871;52.702;5.230;2024-02-23T12:00:27;9.70;99.90
27413;DHT22;14871;52.702;5.230;2024-02-23T12:02:55;9.90;99.90
27413;DHT22;14871;52.702;5.230;2024-02-23T12:05:22;10.00;99.90
27413;DHT22;14871;52.702;5.230;2024-02-23T12:07:47;10.20;99.90
27413;DHT22;14871;52.702;5.230;2024-02-23T12:10:13;10.20;99.90
27413;DHT22;14871;52.702;5.230;2024-02-23T12:12:39;10.30;99.90
27413;DHT22;14871;52.702;5.230;2024-02-23T12:15:06;10.40;99.90
27413;DHT22;14871;52.702;5.230;2024-02-23T12:17:31;10.60;99.90
27413;DHT22;14871;52.702;5.230;2024-02-23T12:20:01;10.60;99.90
27413;DHT22;14871;52.702;5.230;2024-02-23T12:22:27;10.50;99.90
27413;DHT22;14871;52.702;5.230;2024-02-23T12:24:52;10.60;99.90
27413;DHT22;14871;52.702;5.230;2024-02-23T12:27:18;10.60;99.90
27413;DHT22;14871;52.702;5.230;2024-02-23T12:29:54;10.60;99.90
27413;DHT22;14871;52.702;5.230;2024-02-23T12:32:21;10.20;99.90
27413;DHT22;14871;52.702;5.230;2024-02-23T12:34:47;10.50;99.90
27413;DHT22;14871;52.702;5.230;2024-02-23T12:37:16;10.70;99.90
27413;DHT22;14871;52.702;5.230;2024-02-23T12:39:43;10.80;99.90
27413;DHT22;14871;52.702;5.230;2024-02-23T12:42:09;11.10;99.90
27413;DHT22;14871;52.702;5.230;2024-02-23T12:44:35;11.00;99.90
27413;DHT22;14871;52.702;5.230;2024-02-23T12:47:01;11.00;99.90
27413;DHT22;14871;52.702;5.230;2024-02-23T12:49:26;11.30;99.90
27413;DHT22;14871;52.702;5.230;2024-02-23T12:51:52;11.40;99.90
27413;DHT22;14871;52.702;5.230;2024-02-23T12:54:18;11.50;99.90
27413;DHT22;14871;52.702;5.230;2024-02-23T12:56:43;11.70;99.90
27413;DHT22;14871;52.702;5.230;2024-02-23T12:59:09;11.70;99.90
27413;DHT22;14871;52.702;5.230;2024-02-23T13:01:35;11.80;99.90
27413;DHT22;14871;52.702;5.230;2024-02-23T13:04:03;11.80;99.90
27413;DHT22;14871;52.702;5.230;2024-02-23T13:06:38;11.60;99.90
27413;DHT22;14871;52.702;5.230;2024-02-23T13:09:04;11.70;99.90
27413;DHT22;14871;52.702;5.230;2024-02-23T13:11:31;11.90;99.90
27413;DHT22;14871;52.702;5.230;2024-02-23T13:13:56;12.10;99.90
27413;DHT22;14871;52.702;5.230;2024-02-23T13:16:22;12.30;99.90
27413;DHT22;14871;52.702;5.230;2024-02-23T13:18:48;12.30;99.90
27413;DHT22;14871;52.702;5.230;2024-02-23T13:21:14;11.80;99.90
27413;DHT22;14871;52.702;5.230;2024-02-23T13:23:39;11.70;99.90
27413;DHT22;14871;52.702;5.230;2024-02-23T13:26:07;11.20;99.90
27413;DHT22;14871;52.702;5.230;2024-02-23T13:28:34;10.60;99.90
27413;DHT22;14871;52.702;5.230;2024-02-23T13:30:59;10.60;99.90
27413;DHT22;14871;52.702;5.230;2024-02-23T13:33:25;10.60;99.90
27413;DHT22;14871;52.702;5.230;2024-02-23T13:35:51;10.50;99.90
27413;DHT22;14871;52.702;5.230;2024-02-23T13:38:17;10.80;99.90
27413;DHT22;14871;52.702;5.230;2024-02-23T13:40:43;11.40;99.90
27413;DHT22;14871;52.702;5.230;2024-02-23T13:43:08;11.40;99.90
27413;DHT22;14871;52.702;5.230;2024-02-23T13:45:50;11.90;99.90
27413;DHT22;14871;52.702;5.230;2024-02-23T13:48:17;12.00;99.90
27413;DHT22;14871;52.702;5.230;2024-02-23T13:50:44;12.20;99.90
27413;DHT22;14871;52.702;5.230;2024-02-23T13:53:12;12.30;99.90
27413;DHT22;14871;52.702;5.230;2024-02-23T13:55:38;12.20;99.90
27413;DHT22;14871;52.702;5.230;2024-02-23T13:58:04;12.00;99.90
27413;DHT22;14871;52.702;5.230;2024-02-23T14:00:30;11.90;99.90
27413;DHT22;14871;52.702;5.230;2024-02-23T14:02:55;11.80;99.90
27413;DHT22;14871;52.702;5.230;2024-02-23T14:05:21;11.60;99.90
27413;DHT22;14871;52.702;5.230;2024-02-23T14:07:47;11.60;99.90
27413;DHT22;14871;52.702;5.230;2024-02-23T14:10:13;11.60;99.90
27413;DHT22;14871;52.702;5.230;2024-02-23T14:12:40;11.90;99.90
27413;DHT22;14871;52.702;5.230;2024-02-23T14:15:06;12.20;99.90
27413;DHT22;14871;52.702;5.230;2024-02-23T14:17:32;12.50;99.90
27413;DHT22;14871;52.702;5.230;2024-02-23T14:20:00;12.70;99.90
27413;DHT22;14871;52.702;5.230;2024-02-23T14:22:25;12.70;99.90
27413;DHT22;14871;52.702;5.230;2024-02-23T14:24:53;12.60;99.90
27413;DHT22;14871;52.702;5.230;2024-02-23T14:27:18;12.20;99.90
27413;DHT22;14871;52.702;5.230;2024-02-23T14:29:44;12.30;99.90
27413;DHT22;14871;52.702;5.230;2024-02-23T14:32:15;12.60;99.90
27413;DHT22;14871;52.702;5.230;2024-02-23T14:34:41;13.00;99.90
27413;DHT22;14871;52.702;5.230;2024-02-23T14:37:07;13.10;99.90
27413;DHT22;14871;52.702;5.230;2024-02-23T14:39:32;12.80;99.90
27413;DHT22;14871;52.702;5.230;2024-02-23T14:41:59;12.90;99.90
27413;DHT22;14871;52.702;5.230;2024-02-23T14:44:25;12.90;99.90
27413;DHT22;14871;52.702;5.230;2024-02-23T14:46:51;12.60;99.90
27413;DHT22;14871;52.702;5.230;2024-02-23T14:49:17;12.40;99.90
27413;DHT22;14871;52.702;5.230;2024-02-23T14:51:43;12.10;99.90
27413;DHT22;14871;52.702;5.230;2024-02-23T14:54:11;12.10;99.90
27413;DHT22;14871;52.702;5.230;2024-02-23T14:56:37;12.10;99.90
27413;DHT22;14871;52.702;5.230;2024-02-23T14:59:03;12.10;99.90
27413;DHT22;14871;52.702;5.230;2024-02-23T15:01:28;11.90;99.90
27413;DHT22;14871;52.702;5.230;2024-02-23T15:03:54;11.80;99.90
27413;DHT22;14871;52.702;5.230;2024-02-23T15:06:20;11.70;99.90
27413;DHT22;14871;52.702;5.230;2024-02-23T15:08:48;11.70;99.90
27413;DHT22;14871;52.702;5.230;2024-02-23T15:11:13;11.60;99.90
27413;DHT22;14871;52.702;5.230;2024-02-23T15:13:39;11.50;99.90
27413;DHT22;14871;52.702;5.230;2024-02-23T15:16:06;11.50;99.90
27413;DHT22;14871;52.702;5.230;2024-02-23T15:18:31;11.50;99.90
27413;DHT22;14871;52.702;5.230;2024-02-23T15:20:57;11.30;99.90
27413;DHT22;14871;52.702;5.230;2024-02-23T15:23:23;11.20;99.90
27413;DHT22;14871;52.702;5.230;2024-02-23T15:25:50;11.00;99.90
27413;DHT22;14871;52.702;5.230;2024-02-23T15:28:15;11.10;99.90
27413;DHT22;14871;52.702;5.230;2024-02-23T15:30:51;11.10;99.90
27413;DHT22;14871;52.702;5.230;2024-02-23T15:33:17;11.10;99.90
27413;DHT22;14871;52.702;5.230;2024-02-23T15:35:43;11.10;99.90
27413;DHT22;14871;52.702;5.230;2024-02-23T15:38:08;11.00;99.90